createdAt,value
2023-05-14T00:01:04.865Z,98813.53
2023-05-14T00:03:31.541Z,98802.41
2023-05-14T00:05:58.438Z,98805.91
2023-05-14T00:08:25.086Z,98805.06
2023-05-14T00:10:52.204Z,98810.25
2023-05-14T00:13:18.820Z,98803.59
2023-05-14T00:15:45.522Z,98797.00
2023-05-14T00:18:12.454Z,98802.41
2023-05-14T00:20:39.454Z,98801.66
2023-05-14T00:23:06.110Z,98797.06
2023-05-14T00:25:32.719Z,98796.13
2023-05-14T00:27:59.469Z,98790.88
2023-05-14T00:30:26.199Z,98787.38
2023-05-14T00:32:52.902Z,98787.53
2023-05-14T00:35:21.500Z,98783.94
2023-05-14T00:37:48.175Z,98783.13
2023-05-14T00:40:15.539Z,98783.38
2023-05-14T00:42:42.235Z,98770.53
2023-05-14T00:45:09.207Z,98776.47
2023-05-14T00:47:36.531Z,98769.53
2023-05-14T00:50:04.058Z,98767.78
2023-05-14T00:52:31.508Z,98766.03
2023-05-14T00:54:59.071Z,98770.41
2023-05-14T00:57:25.822Z,98773.13
2023-05-14T00:59:52.628Z,98774.88
2023-05-14T01:02:19.219Z,98772.31
2023-05-14T01:04:45.890Z,98764.47
2023-05-14T01:07:23.392Z,98768.06
2023-05-14T01:10:29.059Z,98762.94
2023-05-14T01:13:13.970Z,98760.59
2023-05-14T01:15:41.978Z,98766.88
2023-05-14T01:18:10.849Z,98757.75
2023-05-14T01:20:37.470Z,98756.34
2023-05-14T01:23:04.113Z,98760.88
2023-05-14T01:25:34.118Z,98753.44
2023-05-14T01:28:13.599Z,98758.81
2023-05-14T01:31:04.606Z,98757.22
2023-05-14T01:33:33.849Z,98753.78
2023-05-14T01:36:00.736Z,98748.88
2023-05-14T01:38:31.732Z,98745.47
2023-05-14T01:41:00.158Z,98744.75
2023-05-14T01:43:27.500Z,98734.53
2023-05-14T01:45:55.594Z,98736.56
2023-05-14T01:48:22.488Z,98732.06
2023-05-14T01:50:49.113Z,98726.69
2023-05-14T01:53:15.765Z,98731.03
2023-05-14T01:55:42.483Z,98739.59
2023-05-14T01:58:09.101Z,98727.75
2023-05-14T02:00:35.697Z,98728.38
2023-05-14T02:03:02.436Z,98721.25
2023-05-14T02:05:29.081Z,98721.38
2023-05-14T02:07:55.685Z,98725.94
2023-05-14T02:10:22.695Z,98723.47
2023-05-14T02:12:49.505Z,98728.53
2023-05-14T02:15:16.089Z,98727.75
2023-05-14T02:17:42.721Z,98719.03
2023-05-14T02:20:10.367Z,98706.78
2023-05-14T02:22:37.447Z,98709.38
2023-05-14T02:25:04.338Z,98723.16
2023-05-14T02:27:30.911Z,98716.13
2023-05-14T02:30:00.827Z,98721.31
2023-05-14T02:32:28.447Z,98727.31
2023-05-14T02:34:55.461Z,98722.91
2023-05-14T02:37:22.199Z,98717.28
2023-05-14T02:39:49.467Z,98721.88
2023-05-14T02:42:16.045Z,98716.13
2023-05-14T02:44:42.626Z,98706.03
2023-05-14T02:47:09.400Z,98702.47
2023-05-14T02:49:36.128Z,98698.06
2023-05-14T02:52:02.686Z,98699.66
2023-05-14T02:54:29.271Z,98698.81
2023-05-14T02:56:55.881Z,98700.50
2023-05-14T02:59:24.151Z,98692.56
2023-05-14T03:01:53.702Z,98706.44
2023-05-14T03:04:20.729Z,98700.41
2023-05-14T03:06:47.384Z,98700.41
2023-05-14T03:09:14.455Z,98707.47
2023-05-14T03:11:41.021Z,98696.09
2023-05-14T03:14:07.667Z,98683.97
2023-05-14T03:16:34.436Z,98690.75
2023-05-14T03:19:01.121Z,98694.44
2023-05-14T03:21:27.718Z,98690.97
2023-05-14T03:23:54.341Z,98690.13
2023-05-14T03:26:21.681Z,98686.75
2023-05-14T03:28:51.109Z,98686.63
2023-05-14T03:31:17.733Z,98696.16
2023-05-14T03:33:44.541Z,98694.56
2023-05-14T03:36:11.203Z,98702.47
2023-05-14T03:38:38.178Z,98694.56
2023-05-14T03:41:04.776Z,98699.06
2023-05-14T03:43:31.804Z,98701.59
2023-05-14T03:45:58.416Z,98694.56
2023-05-14T03:48:25.403Z,98701.47
2023-05-14T03:50:52.255Z,98692.88
2023-05-14T03:53:21.119Z,98692.88
2023-05-14T03:55:47.670Z,98694.56
2023-05-14T03:58:14.621Z,98694.56
2023-05-14T04:00:42.308Z,98689.28
2023-05-14T04:03:09.256Z,98695.25
2023-05-14T04:05:36.152Z,98697.75
2023-05-14T04:08:02.759Z,98691.59
2023-05-14T04:10:29.913Z,98696.72
2023-05-14T04:12:56.533Z,98700.91
2023-05-14T04:15:23.384Z,98700.97
2023-05-14T04:17:52.943Z,98696.53
2023-05-14T04:20:19.646Z,98706.94
2023-05-14T04:22:46.269Z,98694.81
2023-05-14T04:25:13.381Z,98700.00
2023-05-14T04:27:41.404Z,98694.88
2023-05-14T04:30:08.749Z,98703.34
2023-05-14T04:32:35.633Z,98692.22
2023-05-14T04:35:02.780Z,98690.66
2023-05-14T04:37:29.425Z,98688.00
2023-05-14T04:39:56.017Z,98692.22
2023-05-14T04:42:22.720Z,98686.16
2023-05-14T04:44:49.349Z,98681.78
2023-05-14T04:47:15.972Z,98678.34
2023-05-14T04:49:43.429Z,98675.56
2023-05-14T04:52:10.156Z,98671.31
2023-05-14T04:54:36.914Z,98670.31
2023-05-14T04:57:03.606Z,98667.72
2023-05-14T04:59:30.948Z,98665.06
2023-05-14T05:01:59.112Z,98659.56
2023-05-14T05:04:26.384Z,98674.25
2023-05-14T05:06:56.600Z,98667.16
2023-05-14T05:09:23.305Z,98662.63
2023-05-14T05:11:49.880Z,98660.81
2023-05-14T05:14:19.378Z,98667.81
2023-05-14T05:16:46.206Z,98667.56
2023-05-14T05:19:12.919Z,98658.88
2023-05-14T05:21:42.505Z,98667.38
2023-05-14T05:24:09.144Z,98659.59
2023-05-14T05:26:38.814Z,98657.84
2023-05-14T05:29:06.004Z,98668.13
2023-05-14T05:31:32.757Z,98668.13
2023-05-14T05:34:00.119Z,98661.97
2023-05-14T05:36:27.385Z,98662.03
2023-05-14T05:38:54.092Z,98667.09
2023-05-14T05:41:20.662Z,98675.69
2023-05-14T05:43:47.265Z,98673.84
2023-05-14T05:46:15.446Z,98679.84
2023-05-14T05:48:42.023Z,98678.09
2023-05-14T05:51:08.705Z,98688.25
2023-05-14T05:53:35.382Z,98687.25
2023-05-14T05:56:02.044Z,98695.03
2023-05-14T05:58:28.679Z,98695.91
2023-05-14T06:00:57.639Z,98690.78
2023-05-14T06:03:24.252Z,98687.97
2023-05-14T06:05:52.753Z,98686.50
2023-05-14T06:08:19.532Z,98689.78
2023-05-14T06:10:47.649Z,98684.31
2023-05-14T06:13:14.529Z,98684.31
2023-05-14T06:15:41.121Z,98683.38
2023-05-14T06:18:09.604Z,98679.72
2023-05-14T06:20:36.282Z,98680.44
2023-05-14T06:23:02.823Z,98675.19
2023-05-14T06:25:29.495Z,98676.91
2023-05-14T06:27:56.109Z,98675.13
2023-05-14T06:30:22.968Z,98680.44
2023-05-14T06:32:51.814Z,98679.38
2023-05-14T06:35:19.280Z,98680.91
2023-05-14T06:37:46.018Z,98674.81
2023-05-14T06:40:15.664Z,98673.09
2023-05-14T06:42:42.641Z,98667.81
2023-05-14T06:45:09.596Z,98665.28
2023-05-14T06:47:36.478Z,98668.63
2023-05-14T06:50:03.410Z,98652.28
2023-05-14T06:52:29.946Z,98655.66
2023-05-14T06:54:56.511Z,98645.00
2023-05-14T06:57:23.140Z,98646.69
2023-05-14T06:59:49.785Z,98646.63
2023-05-14T07:02:16.380Z,98643.13
2023-05-14T07:04:43.020Z,98638.69
2023-05-14T07:07:13.572Z,98635.25
2023-05-14T07:09:40.178Z,98629.13
2023-05-14T07:12:07.476Z,98621.00
2023-05-14T07:14:34.459Z,98616.66
2023-05-14T07:17:02.920Z,98610.66
2023-05-14T07:19:30.252Z,98614.84
2023-05-14T07:21:57.713Z,98608.66
2023-05-14T07:24:24.369Z,98609.34
2023-05-14T07:26:51.054Z,98614.56
2023-05-14T07:29:19.933Z,98619.63
2023-05-14T07:31:48.714Z,98612.88
2023-05-14T07:34:15.488Z,98618.94
2023-05-14T07:36:42.189Z,98619.63
2023-05-14T07:39:09.070Z,98618.81
2023-05-14T07:41:35.837Z,98613.47
2023-05-14T07:44:02.538Z,98616.28
2023-05-14T07:46:29.134Z,98613.75
2023-05-14T07:48:55.984Z,98613.78
2023-05-14T07:51:23.115Z,98611.13
2023-05-14T07:53:49.724Z,98610.94
2023-05-14T07:56:16.477Z,98607.22
2023-05-14T07:58:44.864Z,98607.97
2023-05-14T08:01:12.829Z,98612.22
2023-05-14T08:03:39.989Z,98613.31
2023-05-14T08:06:06.736Z,98610.50
2023-05-14T08:08:33.384Z,98608.13
2023-05-14T08:11:00.017Z,98618.38
2023-05-14T08:13:26.706Z,98622.47
2023-05-14T08:15:53.344Z,98622.69
2023-05-14T08:18:19.985Z,98617.66
2023-05-14T08:20:47.070Z,98614.41
2023-05-14T08:23:13.673Z,98619.75
2023-05-14T08:25:40.262Z,98613.84
2023-05-14T08:28:07.709Z,98627.63
2023-05-14T08:30:34.595Z,98616.34
2023-05-14T08:33:03.727Z,98617.38
2023-05-14T08:35:30.413Z,98618.09
2023-05-14T08:37:57.237Z,98613.66
2023-05-14T08:40:24.006Z,98612.75
2023-05-14T08:42:51.732Z,98608.25
2023-05-14T08:45:20.727Z,98612.47
2023-05-14T08:47:51.501Z,98610.66
2023-05-14T08:50:21.891Z,98610.50
2023-05-14T08:52:49.786Z,98606.16
2023-05-14T08:55:16.460Z,98599.28
2023-05-14T08:57:43.075Z,98598.16
2023-05-14T09:00:13.236Z,98597.19
2023-05-14T09:02:41.122Z,98595.38
2023-05-14T09:05:09.301Z,98586.56
2023-05-14T09:07:36.128Z,98577.81
2023-05-14T09:10:04.073Z,98577.72
2023-05-14T09:12:31.359Z,98579.31
2023-05-14T09:14:58.250Z,98574.91
2023-05-14T09:17:27.362Z,98570.47
2023-05-14T09:19:54.487Z,98577.91
2023-05-14T09:22:22.468Z,98582.84
2023-05-14T09:25:06.159Z,98585.47
2023-05-14T09:27:34.335Z,98581.16
2023-05-14T09:30:12.640Z,98579.47
2023-05-14T09:32:41.029Z,98578.47
2023-05-14T09:35:17.162Z,98569.00
2023-05-14T09:37:46.599Z,98567.84
2023-05-14T09:40:14.037Z,98572.03
2023-05-14T09:42:41.467Z,98556.13
2023-05-14T09:45:09.666Z,98548.03
2023-05-14T09:47:37.477Z,98554.69
2023-05-14T09:50:05.054Z,98551.81
2023-05-14T09:52:31.836Z,98543.69
2023-05-14T09:54:58.605Z,98548.59
2023-05-14T09:57:25.329Z,98550.16
2023-05-14T09:59:51.921Z,98554.91
2023-05-14T10:02:36.898Z,98552.09
2023-05-14T10:05:04.660Z,98543.19
2023-05-14T10:07:38.894Z,98543.06
2023-05-14T10:10:09.580Z,98535.84
2023-05-14T10:12:40.357Z,98538.22
2023-05-14T10:15:20.119Z,98535.38
2023-05-14T10:17:54.084Z,98530.59
2023-05-14T10:20:23.419Z,98526.94
2023-05-14T10:22:51.189Z,98525.84
2023-05-14T10:25:18.337Z,98522.34
2023-05-14T10:27:45.541Z,98519.66
2023-05-14T10:30:13.055Z,98523.84
2023-05-14T10:32:41.935Z,98519.06
2023-05-14T10:35:25.460Z,98518.00
2023-05-14T10:37:52.223Z,98522.22
2023-05-14T10:40:19.500Z,98523.75
2023-05-14T10:42:46.958Z,98521.94
2023-05-14T10:45:15.633Z,98517.41
2023-05-14T10:47:43.661Z,98511.06
2023-05-14T10:50:12.876Z,98505.78
2023-05-14T10:52:42.857Z,98498.56
2023-05-14T10:55:12.468Z,98492.34
2023-05-14T10:57:40.689Z,98495.72
2023-05-14T11:00:08.981Z,98489.38
2023-05-14T11:02:38.237Z,98488.31
2023-05-14T11:05:17.417Z,98484.50
2023-05-14T11:07:46.304Z,98483.69
2023-05-14T11:10:17.921Z,98483.59
2023-05-14T11:12:46.906Z,98478.13
2023-05-14T11:15:15.980Z,98486.88
2023-05-14T11:17:46.668Z,98470.13
2023-05-14T11:20:14.107Z,98470.97
2023-05-14T11:22:43.580Z,98464.16
2023-05-14T11:25:14.864Z,98465.84
2023-05-14T11:27:44.228Z,98464.16
2023-05-14T11:30:17.886Z,98468.63
2023-05-14T11:32:48.946Z,98459.19
2023-05-14T11:35:16.799Z,98460.13
2023-05-14T11:37:44.279Z,98460.03
2023-05-14T11:40:17.220Z,98458.19
2023-05-14T11:42:44.150Z,98453.97
2023-05-14T11:45:12.744Z,98455.06
2023-05-14T11:47:42.197Z,98461.38
2023-05-14T11:50:09.813Z,98460.69
2023-05-14T11:52:42.558Z,98465.91
2023-05-14T11:55:13.072Z,98455.81
2023-05-14T11:57:41.088Z,98442.88
2023-05-14T12:00:16.869Z,98444.72
2023-05-14T12:02:43.772Z,98449.00
2023-05-14T12:05:13.397Z,98449.41
2023-05-14T12:07:40.623Z,98436.47
2023-05-14T12:10:07.917Z,98425.34
2023-05-14T12:12:37.219Z,98413.34
2023-05-14T12:15:12.855Z,98410.16
2023-05-14T12:17:39.979Z,98404.88
2023-05-14T12:20:12.566Z,98407.72
2023-05-14T12:22:42.838Z,98401.91
2023-05-14T12:25:14.104Z,98402.34
2023-05-14T12:27:44.855Z,98401.31
2023-05-14T12:30:20.552Z,98395.19
2023-05-14T12:32:54.025Z,98400.41
2023-05-14T12:35:22.746Z,98390.97
2023-05-14T12:37:52.338Z,98384.94
2023-05-14T12:40:19.091Z,98383.25
2023-05-14T12:42:45.838Z,98385.09
2023-05-14T12:45:12.398Z,98381.56
2023-05-14T12:47:39.028Z,98379.13
2023-05-14T12:50:06.582Z,98375.00
2023-05-14T12:52:38.590Z,98369.78
2023-05-14T12:55:09.871Z,98360.22
2023-05-14T12:57:38.525Z,98354.91
2023-05-14T13:00:10.826Z,98360.97
2023-05-14T13:02:42.569Z,98372.38
2023-05-14T13:05:11.424Z,98362.81
2023-05-14T13:07:38.582Z,98360.22
2023-05-14T13:10:06.016Z,98352.63
2023-05-14T13:12:32.877Z,98334.44
2023-05-14T13:14:59.619Z,98329.91
2023-05-14T13:17:26.418Z,98327.50
2023-05-14T13:19:53.022Z,98324.28
2023-05-14T13:22:19.677Z,98322.53
2023-05-14T13:24:46.469Z,98315.72
2023-05-14T13:27:13.164Z,98311.34
2023-05-14T13:29:39.858Z,98316.63
2023-05-14T13:32:09.718Z,98303.44
2023-05-14T13:34:36.501Z,98293.09
2023-05-14T13:37:04.006Z,98282.84
2023-05-14T13:39:30.764Z,98273.28
2023-05-14T13:41:57.368Z,98274.94
2023-05-14T13:44:24.477Z,98267.03
2023-05-14T13:46:51.266Z,98278.16
2023-05-14T13:49:18.059Z,98282.41
2023-05-14T13:51:45.045Z,98294.53
2023-05-14T13:54:15.933Z,98287.22
2023-05-14T13:56:42.554Z,98292.59
2023-05-14T13:59:09.471Z,98292.94
2023-05-14T14:01:36.045Z,98292.16
2023-05-14T14:04:03.295Z,98290.41
2023-05-14T14:06:34.223Z,98276.38
2023-05-14T14:09:00.968Z,98281.56
2023-05-14T14:11:27.844Z,98273.75
2023-05-14T14:13:54.661Z,98276.44
2023-05-14T14:16:21.318Z,98269.50
2023-05-14T14:18:48.070Z,98276.38
2023-05-14T14:21:18.067Z,98278.97
2023-05-14T14:23:48.249Z,98281.66
2023-05-14T14:26:14.901Z,98278.22
2023-05-14T14:28:43.698Z,98280.72
2023-05-14T14:31:10.978Z,98279.16
2023-05-14T14:33:37.674Z,98266.78
2023-05-14T14:36:04.681Z,98263.16
2023-05-14T14:38:34.316Z,98266.13
2023-05-14T14:41:03.236Z,98251.41
2023-05-14T14:43:29.911Z,98250.56
2023-05-14T14:45:56.529Z,98249.72
2023-05-14T14:48:39.243Z,98253.19
2023-05-14T14:51:09.152Z,98259.22
2023-05-14T14:53:39.980Z,98253.09
2023-05-14T14:56:06.742Z,98247.03
2023-05-14T14:58:33.451Z,98238.22
2023-05-14T15:01:01.458Z,98236.53
2023-05-14T15:03:28.952Z,98242.66
2023-05-14T15:05:55.887Z,98239.31
2023-05-14T15:08:26.130Z,98240.06
2023-05-14T15:10:52.740Z,98241.75
2023-05-14T15:13:19.900Z,98246.03
2023-05-14T15:15:47.098Z,98247.88
2023-05-14T15:18:13.841Z,98249.72
2023-05-14T15:20:40.650Z,98240.25
2023-05-14T15:23:10.165Z,98240.31
2023-05-14T15:25:37.057Z,98239.72
2023-05-14T15:28:06.344Z,98241.31
2023-05-14T15:30:33.240Z,98240.38
2023-05-14T15:32:59.962Z,98241.31
2023-05-14T15:35:28.673Z,98238.63
2023-05-14T15:37:59.597Z,98234.44
2023-05-14T15:40:27.652Z,98231.06
2023-05-14T15:42:54.620Z,98226.72
2023-05-14T15:45:21.276Z,98233.75
2023-05-14T15:47:47.940Z,98228.47
2023-05-14T15:50:14.564Z,98224.34
2023-05-14T15:52:41.592Z,98220.81
2023-05-14T15:55:09.021Z,98221.81
2023-05-14T15:57:35.719Z,98216.19
2023-05-14T16:00:09.819Z,98214.44
2023-05-14T16:02:37.195Z,98213.06
2023-05-14T16:05:04.277Z,98208.72
2023-05-14T16:07:31.016Z,98212.13
2023-05-14T16:09:57.711Z,98213.25
2023-05-14T16:12:26.209Z,98209.88
2023-05-14T16:14:52.896Z,98200.22
2023-05-14T16:17:19.612Z,98190.72
2023-05-14T16:19:49.194Z,98186.44
2023-05-14T16:22:16.064Z,98181.31
2023-05-14T16:24:42.701Z,98170.06
2023-05-14T16:27:09.390Z,98170.06
2023-05-14T16:29:36.272Z,98155.38
2023-05-14T16:32:03.099Z,98157.28
2023-05-14T16:34:29.665Z,98145.88
2023-05-14T16:36:56.333Z,98152.50
2023-05-14T16:39:22.874Z,98141.16
2023-05-14T16:41:49.568Z,98141.16
2023-05-14T16:44:16.517Z,98137.72
2023-05-14T16:46:43.244Z,98137.03
2023-05-14T16:49:09.905Z,98129.41
2023-05-14T16:51:43.099Z,98126.97
2023-05-14T16:54:09.919Z,98126.97
2023-05-14T16:56:36.861Z,98125.22
2023-05-14T16:59:03.460Z,98117.59
2023-05-14T17:01:30.600Z,98116.78
2023-05-14T17:03:58.408Z,98113.50
2023-05-14T17:06:25.085Z,98107.53
2023-05-14T17:08:51.738Z,98109.22
2023-05-14T17:11:18.295Z,98110.13
2023-05-14T17:13:44.893Z,98108.63
2023-05-14T17:16:11.826Z,98116.50
2023-05-14T17:18:38.906Z,98109.53
2023-05-14T17:21:07.534Z,98101.03
2023-05-14T17:23:34.429Z,98101.13
2023-05-14T17:26:01.023Z,98095.75
2023-05-14T17:28:29.828Z,98095.63
2023-05-14T17:30:57.044Z,98092.25
2023-05-14T17:33:23.741Z,98082.16
2023-05-14T17:35:50.473Z,98072.50
2023-05-14T17:38:17.223Z,98073.44
2023-05-14T17:40:43.832Z,98064.88
2023-05-14T17:43:10.533Z,98059.84
2023-05-14T17:45:52.570Z,98064.88
2023-05-14T17:48:20.731Z,98065.94
2023-05-14T17:50:51.601Z,98063.34
2023-05-14T17:53:18.318Z,98071.09
2023-05-14T17:55:45.067Z,98066.13
2023-05-14T17:58:13.527Z,98067.06
2023-05-14T18:00:40.860Z,98074.94
2023-05-14T18:03:08.017Z,98069.81
2023-05-14T18:05:34.806Z,98069.06
2023-05-14T18:08:01.377Z,98068.97
2023-05-14T18:10:29.680Z,98062.19
2023-05-14T18:12:56.734Z,98060.56
2023-05-14T18:15:25.778Z,98064.19
2023-05-14T18:17:53.083Z,98055.47
2023-05-14T18:20:20.060Z,98058.91
2023-05-14T18:22:46.729Z,98059.81
2023-05-14T18:25:13.806Z,98050.25
2023-05-14T18:27:44.522Z,98051.25
2023-05-14T18:30:15.756Z,98041.69
2023-05-14T18:32:44.383Z,98046.72
2023-05-14T18:35:12.259Z,98056.44
2023-05-14T18:37:41.802Z,98058.31
2023-05-14T18:40:09.085Z,98046.22
2023-05-14T18:42:35.741Z,98048.81
2023-05-14T18:45:02.594Z,98042.63
2023-05-14T18:47:29.584Z,98035.63
2023-05-14T18:49:59.043Z,98033.81
2023-05-14T18:52:26.297Z,98026.25
2023-05-14T18:54:53.838Z,98026.16
2023-05-14T18:57:21.055Z,98022.88
2023-05-14T18:59:49.834Z,98029.72
2023-05-14T19:02:16.688Z,98036.66
2023-05-14T19:04:52.466Z,98034.13
2023-05-14T19:07:22.944Z,98028.09
2023-05-14T19:09:49.512Z,98035.22
2023-05-14T19:12:16.357Z,98026.69
2023-05-14T19:14:42.966Z,98021.41
2023-05-14T19:17:09.676Z,98018.78
2023-05-14T19:19:37.905Z,98017.94
2023-05-14T19:22:04.709Z,98016.03
2023-05-14T19:24:31.307Z,98004.84
2023-05-14T19:26:58.005Z,98001.41
2023-05-14T19:29:25.042Z,98004.94
2023-05-14T19:31:51.862Z,98000.41
2023-05-14T19:34:18.544Z,98000.72
2023-05-14T19:36:45.479Z,97995.53
2023-05-14T19:39:12.077Z,97990.28
2023-05-14T19:41:38.663Z,97987.59
2023-05-14T19:44:05.359Z,97970.63
2023-05-14T19:46:32.043Z,97966.09
2023-05-14T19:48:58.771Z,97966.03
2023-05-14T19:51:25.592Z,97953.03
2023-05-14T19:53:52.249Z,97957.97
2023-05-14T19:56:19.057Z,97957.13
2023-05-14T19:58:45.647Z,97953.03
2023-05-14T20:01:12.469Z,97947.66
2023-05-14T20:03:42.153Z,97942.72
2023-05-14T20:06:08.859Z,97940.19
2023-05-14T20:08:35.542Z,97940.19
2023-05-14T20:11:02.152Z,97933.88
2023-05-14T20:13:31.846Z,97939.16
2023-05-14T20:15:58.871Z,97938.31
2023-05-14T20:18:25.670Z,97932.31
2023-05-14T20:20:52.262Z,97912.31
2023-05-14T20:23:18.917Z,97913.09
2023-05-14T20:25:45.606Z,97906.13
2023-05-14T20:28:12.249Z,97896.56
2023-05-14T20:30:40.204Z,97893.31
2023-05-14T20:33:06.817Z,97887.34
2023-05-14T20:35:33.587Z,97889.00
2023-05-14T20:38:00.455Z,97883.81
2023-05-14T20:40:27.166Z,97877.78
2023-05-14T20:42:53.784Z,97868.97
2023-05-14T20:45:20.432Z,97866.47
2023-05-14T20:47:47.118Z,97864.03
2023-05-14T20:50:13.904Z,97862.19
2023-05-14T20:52:40.893Z,97868.97
2023-05-14T20:55:08.005Z,97867.31
2023-05-14T20:57:34.656Z,97863.84
2023-05-14T21:00:02.487Z,97874.09
2023-05-14T21:02:29.261Z,97885.59
2023-05-14T21:04:55.991Z,97875.09
2023-05-14T21:07:22.792Z,97874.44
2023-05-14T21:09:52.576Z,97872.59
2023-05-14T21:12:19.651Z,97875.19
2023-05-14T21:14:46.376Z,97869.41
2023-05-14T21:17:13.071Z,97858.91
2023-05-14T21:19:39.872Z,97857.22
2023-05-14T21:22:06.903Z,97859.72
2023-05-14T21:24:33.539Z,97865.13
2023-05-14T21:27:00.183Z,97858.16
2023-05-14T21:29:26.730Z,97862.34
2023-05-14T21:31:53.415Z,97866.81
2023-05-14T21:34:20.445Z,97863.19
2023-05-14T21:36:47.577Z,97859.00
2023-05-14T21:39:14.235Z,97855.66
2023-05-14T21:41:41.441Z,97846.75
2023-05-14T21:44:08.148Z,97841.72
2023-05-14T21:46:34.818Z,97833.81
2023-05-14T21:49:01.532Z,97813.88
2023-05-14T21:51:28.180Z,97802.63
2023-05-14T21:53:54.852Z,97791.41
2023-05-14T21:56:22.592Z,97770.63
2023-05-14T21:58:49.251Z,97766.41
2023-05-14T22:01:15.954Z,97784.53
2023-05-14T22:03:42.650Z,97797.91
2023-05-14T22:06:09.306Z,97803.63
2023-05-14T22:08:36.989Z,97798.97
2023-05-14T22:11:03.766Z,97803.28
2023-05-14T22:13:30.432Z,97812.50
2023-05-14T22:16:09.090Z,97809.97
2023-05-14T22:18:39.227Z,97808.22
2023-05-14T22:21:05.980Z,97807.13
2023-05-14T22:23:32.557Z,97798.47
2023-05-14T22:25:59.161Z,97794.94
2023-05-14T22:28:25.877Z,97787.13
2023-05-14T22:30:52.608Z,97778.41
2023-05-14T22:33:19.489Z,97768.69
2023-05-14T22:35:46.198Z,97763.47
2023-05-14T22:38:13.964Z,97749.53
2023-05-14T22:40:40.802Z,97732.06
2023-05-14T22:43:07.412Z,97725.94
2023-05-14T22:45:34.210Z,97726.69
2023-05-14T22:48:00.937Z,97727.53
2023-05-14T22:50:27.545Z,97717.94
2023-05-14T22:52:54.179Z,97721.28
2023-05-14T22:55:21.211Z,97721.28
2023-05-14T22:57:48.007Z,97721.28
2023-05-14T23:00:15.396Z,97723.34
2023-05-14T23:02:42.135Z,97731.97
2023-05-14T23:05:09.480Z,97732.72
2023-05-14T23:07:36.213Z,97731.03
2023-05-14T23:10:02.869Z,97733.56
2023-05-14T23:12:29.591Z,97729.28
2023-05-14T23:14:56.232Z,97719.81
2023-05-14T23:17:22.945Z,97713.13
2023-05-14T23:19:49.686Z,97710.59
2023-05-14T23:22:16.442Z,97716.66
2023-05-14T23:24:43.143Z,97723.88
2023-05-14T23:27:11.478Z,97713.31
2023-05-14T23:29:38.472Z,97702.72
2023-05-14T23:32:05.410Z,97696.56
2023-05-14T23:34:32.398Z,97690.53
2023-05-14T23:36:59.055Z,97692.31
2023-05-14T23:39:25.856Z,97699.16
2023-05-14T23:41:52.493Z,97687.94
2023-05-14T23:44:19.111Z,97689.69
2023-05-14T23:46:45.806Z,97685.59
2023-05-14T23:49:12.832Z,97684.69
2023-05-14T23:51:39.493Z,97686.34
2023-05-14T23:54:06.097Z,97688.28
2023-05-14T23:56:33.677Z,97679.75
2023-05-14T23:59:00.419Z,97677.78
